createdAt,value
2023-03-23T15:58:53.934Z,44.80
2023-03-23T16:01:31.501Z,44.80
2023-03-23T16:04:07.850Z,45.00
2023-03-23T16:06:36.199Z,44.90
2023-03-23T16:09:07.153Z,44.90
2023-03-23T16:11:36.751Z,44.80
2023-03-23T16:14:03.610Z,44.80
2023-03-23T16:16:38.279Z,44.80
2023-03-23T16:19:06.660Z,44.80
2023-03-23T16:21:36.169Z,44.80
2023-03-23T16:24:05.570Z,44.80
2023-03-23T16:26:34.783Z,45.00
2023-03-23T16:29:14.554Z,45.00
2023-03-23T16:31:50.606Z,45.00
2023-03-23T16:34:17.514Z,45.00
2023-03-23T16:36:44.443Z,45.00
2023-03-23T16:39:15.848Z,45.00
2023-03-23T16:41:42.833Z,45.10
2023-03-23T16:44:09.661Z,45.20
2023-03-23T16:46:36.642Z,45.20
2023-03-23T16:49:03.651Z,46.10
2023-03-23T16:51:30.524Z,45.50
2023-03-23T16:53:57.464Z,45.60
2023-03-23T16:56:24.683Z,45.60
2023-03-23T16:58:51.571Z,45.60
2023-03-23T17:01:19.821Z,45.70
2023-03-23T17:03:49.509Z,45.90
2023-03-23T17:06:19.017Z,46.00
2023-03-23T17:08:45.923Z,46.10
2023-03-23T17:11:12.856Z,46.10
2023-03-23T17:13:42.743Z,46.30
2023-03-23T17:16:12.320Z,46.30
2023-03-23T17:18:39.245Z,46.40
2023-03-23T17:21:06.852Z,46.50
2023-03-23T17:23:33.799Z,46.60
2023-03-23T17:26:01.363Z,46.50
2023-03-23T17:28:30.407Z,46.50
2023-03-23T17:30:57.488Z,46.70
2023-03-23T17:33:24.336Z,46.70
2023-03-23T17:35:52.138Z,46.90
2023-03-23T17:38:22.017Z,46.90
2023-03-23T17:40:56.545Z,46.80
2023-03-23T17:43:25.625Z,47.50
2023-03-23T17:45:52.595Z,46.90
2023-03-23T17:48:19.577Z,47.00
2023-03-23T17:50:57.392Z,47.10
2023-03-23T17:53:26.094Z,47.20
2023-03-23T17:55:57.072Z,47.20
2023-03-23T17:58:26.975Z,47.30
2023-03-23T18:00:55.902Z,47.40
2023-03-23T18:03:24.506Z,47.50
2023-03-23T18:05:52.745Z,47.50
2023-03-23T18:08:19.623Z,47.40
2023-03-23T18:10:46.913Z,47.50
2023-03-23T18:13:13.851Z,47.60
2023-03-23T18:15:46.700Z,47.60
2023-03-23T18:18:17.090Z,47.80
2023-03-23T18:20:44.170Z,47.80
2023-03-23T18:23:12.117Z,47.90
2023-03-23T18:25:40.279Z,47.90
2023-03-23T18:28:07.265Z,48.00
2023-03-23T18:30:35.333Z,48.20
2023-03-23T18:33:04.342Z,48.30
2023-03-23T18:35:31.331Z,48.40
2023-03-23T18:37:58.429Z,48.60
2023-03-23T18:40:25.786Z,48.60
2023-03-23T18:42:52.722Z,48.70
2023-03-23T18:45:19.638Z,48.70
2023-03-23T18:47:46.620Z,48.70
2023-03-23T18:50:16.876Z,48.60
2023-03-23T18:52:45.089Z,48.70
2023-03-23T18:55:11.982Z,48.80
2023-03-23T18:57:44.511Z,48.80
2023-03-23T19:00:12.276Z,48.90
2023-03-23T19:02:41.835Z,48.80
2023-03-23T19:05:09.824Z,48.90
2023-03-23T19:07:38.313Z,48.80
2023-03-23T19:10:05.895Z,49.00
2023-03-23T19:12:32.828Z,49.10
2023-03-23T19:14:59.716Z,49.10
2023-03-23T19:17:26.963Z,49.00
2023-03-23T19:22:27.194Z,48.90
2023-03-23T19:24:54.045Z,48.90
2023-03-23T19:27:21.248Z,49.00
2023-03-23T19:29:48.385Z,49.20
2023-03-23T19:32:15.684Z,49.30
2023-03-23T19:34:50.911Z,49.40
2023-03-23T19:37:18.666Z,49.50
2023-03-23T19:39:48.208Z,49.50
2023-03-23T19:42:18.084Z,49.70
2023-03-23T19:44:45.362Z,49.70
2023-03-23T19:47:14.841Z,50.00
2023-03-23T19:49:42.009Z,50.00
2023-03-23T19:52:12.682Z,50.10
2023-03-23T19:54:46.065Z,50.20
2023-03-23T19:57:14.030Z,50.30
2023-03-23T19:59:41.016Z,50.40
2023-03-23T20:02:11.566Z,50.50
2023-03-23T20:04:41.411Z,50.60
2023-03-23T20:07:08.427Z,50.60
2023-03-23T20:09:36.995Z,50.70
2023-03-23T20:12:05.077Z,50.90
2023-03-23T20:14:33.503Z,51.00
2023-03-23T20:17:00.722Z,51.10
2023-03-23T20:19:30.777Z,51.10
2023-03-23T20:21:57.735Z,51.10
2023-03-23T20:24:24.850Z,51.20
2023-03-23T20:26:52.323Z,51.20
2023-03-23T20:29:21.795Z,51.30
2023-03-23T20:31:50.808Z,51.40
2023-03-23T20:34:31.398Z,51.30
2023-03-23T20:37:00.641Z,51.40
2023-03-23T20:39:30.923Z,51.40
2023-03-23T20:42:03.371Z,51.40
2023-03-23T20:44:34.762Z,51.40
2023-03-23T20:47:03.289Z,51.50
2023-03-23T20:49:33.421Z,51.50
2023-03-23T20:52:01.217Z,51.40
2023-03-23T20:54:28.760Z,51.50
2023-03-23T20:57:01.129Z,51.50
2023-03-23T20:59:30.854Z,51.40
2023-03-23T21:01:57.805Z,51.30
2023-03-23T21:04:30.267Z,51.30
2023-03-23T21:06:57.764Z,51.40
2023-03-23T21:09:25.460Z,52.20
2023-03-23T21:11:59.417Z,51.50
2023-03-23T21:14:27.023Z,51.50
2023-03-23T21:16:53.991Z,51.50
2023-03-23T21:19:21.533Z,51.40
2023-03-23T21:21:56.780Z,51.50
2023-03-23T21:24:29.492Z,51.50
2023-03-23T21:27:00.546Z,51.50
2023-03-23T21:29:32.361Z,51.50
2023-03-23T21:32:08.141Z,51.50
2023-03-23T21:34:37.130Z,51.70
2023-03-23T21:37:04.218Z,51.60
2023-03-23T21:39:31.669Z,51.60
2023-03-23T21:41:59.589Z,51.70
2023-03-23T21:44:26.707Z,51.80
2023-03-23T21:46:54.606Z,51.80
2023-03-23T21:49:21.920Z,51.80
2023-03-23T21:51:50.036Z,51.70
2023-03-23T21:54:17.198Z,51.70
2023-03-23T21:56:49.005Z,51.70
2023-03-23T21:59:17.634Z,51.70
2023-03-23T22:01:44.625Z,51.60
2023-03-23T22:04:11.844Z,51.60
2023-03-23T22:06:42.433Z,51.70
2023-03-23T22:09:11.959Z,51.70
2023-03-23T22:11:39.284Z,51.80
2023-03-23T22:14:06.925Z,51.80
2023-03-23T22:16:38.706Z,51.90
2023-03-23T22:19:08.416Z,51.90
2023-03-23T22:21:36.712Z,52.00
2023-03-23T22:24:08.877Z,52.00
2023-03-23T22:26:38.321Z,52.10
2023-03-23T22:29:06.936Z,52.20
2023-03-23T22:31:37.293Z,52.30
2023-03-23T22:34:04.375Z,52.40
2023-03-23T22:36:33.756Z,52.40
2023-03-23T22:39:04.152Z,52.40
2023-03-23T22:41:42.550Z,52.50
2023-03-23T22:44:19.370Z,53.30
2023-03-23T22:46:47.344Z,52.70
2023-03-23T22:49:14.935Z,52.70
2023-03-23T22:51:44.381Z,52.80
2023-03-23T22:54:11.910Z,52.80
2023-03-23T22:56:38.975Z,52.90
2023-03-23T22:59:07.222Z,52.90
2023-03-23T23:01:36.959Z,53.00
2023-03-23T23:04:06.582Z,53.10
2023-03-23T23:06:34.060Z,53.10
2023-03-23T23:09:01.160Z,53.10
2023-03-23T23:11:31.483Z,53.10
2023-03-23T23:13:58.479Z,53.30
2023-03-23T23:16:27.633Z,53.20
2023-03-23T23:19:00.315Z,53.30
2023-03-23T23:21:29.721Z,53.40
2023-03-23T23:24:01.346Z,53.50
2023-03-23T23:26:28.460Z,53.60
2023-03-23T23:28:57.845Z,53.70
2023-03-23T23:31:29.221Z,53.90
2023-03-23T23:33:59.539Z,54.10
2023-03-23T23:36:28.108Z,54.20
2023-03-23T23:38:56.290Z,54.40
2023-03-23T23:41:24.266Z,54.50
2023-03-23T23:43:51.202Z,54.60
2023-03-23T23:46:20.939Z,54.70
2023-03-23T23:48:48.482Z,54.60
2023-03-23T23:51:16.625Z,54.60
2023-03-23T23:53:46.254Z,54.60
2023-03-23T23:56:14.323Z,54.60
2023-03-23T23:58:41.373Z,54.70
